createdAt,value
2018-01-29T00:00:35.256Z,35.17
2018-01-29T00:03:03.892Z,35.22
2018-01-29T00:05:32.572Z,36.42
2018-01-29T00:08:01.286Z,37.28
2018-01-29T00:10:29.925Z,37.65
2018-01-29T00:12:58.580Z,38.95
2018-01-29T00:15:27.984Z,35.63
2018-01-29T00:17:57.388Z,35.70
2018-01-29T00:20:26.812Z,38.38
2018-01-29T00:22:55.448Z,39.03
2018-01-29T00:25:24.100Z,41.55
2018-01-29T00:27:52.793Z,31.33
2018-01-29T00:30:21.480Z,35.17
2018-01-29T00:32:50.144Z,41.75
2018-01-29T00:35:18.779Z,35.10
2018-01-29T00:37:47.444Z,34.53
2018-01-29T00:40:16.085Z,31.50
2018-01-29T00:42:45.495Z,27.48
2018-01-29T00:45:14.143Z,23.62
2018-01-29T00:47:42.589Z,25.55
2018-01-29T00:50:11.044Z,37.40
2018-01-29T00:52:39.732Z,23.83
2018-01-29T00:55:07.720Z,28.05
2018-01-29T00:57:36.368Z,22.15
2018-01-29T01:00:05.486Z,24.90
2018-01-29T01:02:34.123Z,23.20
2018-01-29T01:05:02.445Z,29.52
2018-01-29T01:07:31.101Z,27.45
2018-01-29T01:09:59.765Z,29.83
2018-01-29T01:12:28.420Z,30.75
2018-01-29T01:14:57.092Z,20.00
2018-01-29T01:17:25.736Z,29.73
2018-01-29T01:19:54.389Z,25.42
2018-01-29T01:22:23.093Z,23.02
2018-01-29T01:24:51.740Z,21.70
2018-01-29T01:27:20.060Z,21.20
2018-01-29T01:29:48.748Z,20.95
2018-01-29T01:32:17.413Z,22.25
2018-01-29T01:34:46.058Z,20.30
2018-01-29T01:37:15.504Z,17.77
2018-01-29T01:39:44.148Z,19.17
2018-01-29T01:42:13.380Z,16.80
2018-01-29T01:44:42.064Z,13.77
2018-01-29T01:47:10.736Z,17.92
2018-01-29T01:49:39.388Z,18.00
2018-01-29T01:52:07.704Z,14.55
2018-01-29T01:54:36.375Z,18.05
2018-01-29T01:57:05.789Z,16.98
2018-01-29T01:59:34.425Z,25.40
2018-01-29T02:02:03.092Z,22.83
2018-01-29T02:04:31.734Z,19.65
2018-01-29T02:07:00.380Z,19.62
2018-01-29T02:09:29.057Z,20.80
2018-01-29T02:11:57.704Z,20.73
2018-01-29T02:14:27.116Z,16.83
2018-01-29T02:16:55.772Z,24.48
2018-01-29T02:19:24.555Z,12.57
2018-01-29T02:21:52.883Z,18.85
2018-01-29T02:24:22.296Z,14.48
2018-01-29T02:26:50.960Z,11.80
2018-01-29T02:29:19.627Z,13.15
2018-01-29T02:31:49.032Z,15.60
2018-01-29T02:34:18.436Z,13.75
2018-01-29T02:36:47.367Z,16.12
2018-01-29T02:39:15.996Z,9.50
2018-01-29T02:41:44.643Z,7.00
2018-01-29T02:44:13.292Z,5.53
2018-01-29T02:46:41.775Z,5.53
2018-01-29T02:49:11.025Z,6.28
2018-01-29T02:51:39.496Z,6.30
2018-01-29T02:54:07.950Z,6.93
2018-01-29T02:56:37.233Z,6.05
2018-01-29T02:59:06.512Z,9.13
2018-01-29T03:01:35.156Z,8.32
2018-01-29T03:04:03.605Z,5.90
2018-01-29T03:06:33.088Z,12.18
2018-01-29T03:09:01.729Z,5.75
2018-01-29T03:11:30.370Z,5.80
2018-01-29T03:13:59.070Z,5.22
2018-01-29T03:16:27.853Z,4.30
2018-01-29T03:18:56.480Z,5.82
2018-01-29T03:21:25.120Z,5.85
2018-01-29T03:23:53.775Z,5.32
2018-01-29T03:26:22.440Z,4.30
2018-01-29T03:28:51.079Z,7.22
2018-01-29T03:31:19.708Z,4.28
2018-01-29T03:33:48.364Z,3.97
2018-01-29T03:36:17.761Z,4.10
2018-01-29T03:38:46.400Z,3.78
2018-01-29T03:41:15.072Z,6.22
2018-01-29T03:43:43.700Z,5.90
2018-01-29T03:46:12.340Z,5.15
2018-01-29T03:48:41.092Z,4.60
2018-01-29T03:51:09.720Z,3.47
2018-01-29T03:53:38.349Z,6.22
2018-01-29T03:56:07.008Z,4.47
2018-01-29T03:58:35.644Z,6.03
2018-01-29T04:01:05.037Z,4.85
2018-01-29T04:03:33.687Z,4.93
2018-01-29T04:06:02.355Z,14.05
2018-01-29T04:08:30.995Z,9.65
2018-01-29T04:10:59.619Z,7.53
2018-01-29T04:13:28.300Z,10.18
2018-01-29T04:15:56.932Z,6.80
2018-01-29T04:18:25.313Z,4.22
2018-01-29T04:20:54.029Z,6.53
2018-01-29T04:23:23.432Z,4.03
2018-01-29T04:25:52.866Z,4.47
2018-01-29T04:28:21.700Z,11.00
2018-01-29T04:30:50.375Z,4.45
2018-01-29T04:33:19.017Z,5.85
2018-01-29T04:35:47.660Z,4.40
2018-01-29T04:38:16.328Z,5.25
2018-01-29T04:40:44.963Z,7.50
2018-01-29T04:43:14.367Z,6.50
2018-01-29T04:45:44.063Z,9.85
2018-01-29T04:48:12.688Z,6.78
2018-01-29T04:50:41.335Z,4.47
2018-01-29T04:53:10.546Z,5.75
2018-01-29T04:55:39.957Z,6.28
2018-01-29T04:58:09.384Z,4.20
2018-01-29T05:00:38.008Z,5.82
2018-01-29T05:03:06.652Z,5.87
2018-01-29T05:05:35.312Z,4.47
2018-01-29T05:08:04.372Z,3.67
2018-01-29T05:10:32.999Z,3.28
2018-01-29T05:13:02.424Z,3.65
2018-01-29T05:15:31.058Z,5.43
2018-01-29T05:17:59.810Z,4.72
2018-01-29T05:20:28.453Z,5.47
2018-01-29T05:22:57.269Z,4.45
2018-01-29T05:25:25.937Z,5.70
2018-01-29T05:27:54.632Z,6.37
2018-01-29T05:30:23.316Z,12.05
2018-01-29T05:32:51.956Z,5.65
2018-01-29T05:38:47.464Z,6.62
2018-01-29T05:41:15.948Z,9.55
2018-01-29T05:43:44.392Z,7.30
2018-01-29T05:46:13.785Z,7.72
2018-01-29T05:48:42.263Z,3.70
2018-01-29T05:51:10.052Z,8.13
2018-01-29T05:53:38.493Z,5.32
2018-01-29T05:56:07.136Z,8.10
2018-01-29T05:58:35.759Z,6.82
2018-01-29T06:01:04.390Z,6.60
2018-01-29T06:03:33.036Z,8.90
2018-01-29T06:06:01.676Z,3.87
2018-01-29T06:08:30.368Z,3.45
2018-01-29T06:10:58.676Z,5.57
2018-01-29T06:13:27.360Z,4.37
2018-01-29T06:15:56.024Z,5.75
2018-01-29T06:18:24.655Z,5.80
2018-01-29T06:20:53.299Z,4.05
2018-01-29T06:23:21.620Z,5.12
2018-01-29T06:25:50.257Z,4.45
2018-01-29T06:28:18.912Z,4.53
2018-01-29T06:30:48.368Z,4.53
2018-01-29T06:33:17.061Z,5.80
2018-01-29T06:35:45.748Z,3.10
2018-01-29T06:38:14.437Z,5.62
2018-01-29T06:40:43.128Z,4.80
2018-01-29T06:43:11.797Z,7.55
2018-01-29T06:45:40.452Z,4.78
2018-01-29T06:48:09.876Z,4.20
2018-01-29T06:50:38.557Z,5.12
2018-01-29T06:53:07.074Z,4.55
2018-01-29T06:55:35.822Z,5.82
2018-01-29T06:58:04.542Z,4.90
2018-01-29T07:00:33.492Z,6.70
2018-01-29T07:03:02.354Z,5.30
2018-01-29T07:05:31.353Z,5.55
2018-01-29T07:08:00.971Z,4.22
2018-01-29T07:10:30.665Z,3.95
2018-01-29T07:12:59.333Z,4.20
2018-01-29T07:15:28.025Z,6.53
2018-01-29T07:17:57.708Z,11.73
2018-01-29T07:20:26.372Z,6.05
2018-01-29T07:22:55.040Z,7.62
2018-01-29T07:25:23.980Z,5.97
2018-01-29T07:27:52.675Z,5.25
2018-01-29T07:30:21.197Z,7.47
2018-01-29T07:32:49.888Z,5.72
2018-01-29T07:35:19.365Z,9.25
2018-01-29T07:37:48.024Z,8.05
2018-01-29T07:40:16.696Z,6.50
2018-01-29T07:42:45.355Z,6.18
2018-01-29T07:45:15.041Z,6.65
2018-01-29T07:47:43.078Z,5.32
2018-01-29T07:50:11.773Z,6.97
2018-01-29T07:52:40.664Z,8.25
2018-01-29T07:55:09.420Z,6.40
2018-01-29T07:57:38.074Z,9.73
2018-01-29T08:00:06.766Z,6.55
2018-01-29T08:02:35.432Z,7.55
2018-01-29T08:05:03.761Z,7.80
2018-01-29T08:07:32.429Z,5.85
2018-01-29T08:10:01.098Z,4.45
2018-01-29T08:12:29.742Z,4.62
2018-01-29T08:14:58.414Z,5.95
2018-01-29T08:17:27.153Z,6.50
2018-01-29T08:19:55.809Z,4.20
2018-01-29T08:22:24.501Z,5.90
2018-01-29T08:24:53.153Z,5.18
2018-01-29T08:27:21.790Z,3.78
2018-01-29T08:29:50.465Z,4.72
2018-01-29T08:32:19.112Z,4.87
2018-01-29T08:34:47.757Z,5.50
2018-01-29T08:37:16.401Z,4.93
2018-01-29T08:39:45.048Z,8.25
2018-01-29T08:42:14.465Z,8.25
2018-01-29T08:44:42.957Z,13.00
2018-01-29T08:47:11.415Z,9.95
2018-01-29T08:49:40.065Z,6.07
2018-01-29T08:52:09.241Z,4.77
2018-01-29T08:54:37.625Z,3.80
2018-01-29T08:57:06.005Z,3.30
2018-01-29T08:59:34.413Z,3.50
2018-01-29T09:02:03.557Z,4.40
2018-01-29T09:04:31.941Z,4.20
2018-01-29T09:07:00.351Z,3.70
2018-01-29T09:09:28.742Z,4.10
2018-01-29T09:11:57.952Z,2.80
2018-01-29T09:14:27.155Z,4.20
2018-01-29T09:16:55.558Z,3.70
2018-01-29T09:19:24.013Z,4.00
2018-01-29T09:21:53.178Z,4.40
2018-01-29T09:24:21.594Z,3.73
2018-01-29T09:26:50.766Z,3.00
2018-01-29T09:29:19.166Z,2.93
2018-01-29T09:31:48.342Z,4.10
2018-01-29T09:34:16.762Z,2.70
2018-01-29T09:36:45.166Z,2.90
2018-01-29T09:39:14.327Z,4.17
2018-01-29T09:41:42.746Z,2.93
2018-01-29T09:44:11.130Z,2.73
2018-01-29T09:46:39.526Z,2.80
2018-01-29T09:49:07.758Z,5.20
2018-01-29T09:51:36.140Z,1.90
2018-01-29T09:54:04.526Z,1.80
2018-01-29T09:56:32.934Z,2.13
2018-01-29T09:59:01.318Z,1.73
2018-01-29T10:01:29.745Z,1.50
2018-01-29T10:03:58.902Z,2.07
2018-01-29T10:06:27.294Z,3.27
2018-01-29T10:08:55.741Z,1.90
2018-01-29T10:11:24.161Z,2.10
2018-01-29T10:13:52.553Z,2.20
2018-01-29T10:16:21.765Z,3.10
2018-01-29T10:18:50.908Z,2.53
2018-01-29T10:21:19.285Z,2.87
2018-01-29T10:23:47.713Z,2.73
2018-01-29T10:26:16.852Z,2.30
2018-01-29T10:28:45.225Z,3.30
2018-01-29T10:31:13.624Z,2.80
2018-01-29T10:33:41.998Z,2.50
2018-01-29T10:36:10.365Z,4.60
2018-01-29T10:38:38.757Z,2.60
2018-01-29T10:41:07.138Z,1.90
2018-01-29T10:43:35.540Z,1.70
2018-01-29T10:46:04.106Z,2.80
2018-01-29T10:48:32.481Z,1.37
2018-01-29T10:51:00.849Z,3.40
2018-01-29T10:53:29.240Z,1.70
2018-01-29T10:55:57.619Z,2.00
2018-01-29T10:58:26.001Z,2.00
2018-01-29T11:01:09.996Z,2.57
2018-01-29T11:03:39.141Z,2.37
2018-01-29T11:06:07.557Z,2.70
2018-01-29T11:08:35.929Z,2.90
2018-01-29T11:11:04.304Z,3.30
2018-01-29T11:13:32.718Z,2.23
2018-01-29T11:16:01.100Z,3.40
2018-01-29T11:18:29.472Z,4.63
2018-01-29T11:20:57.911Z,2.80
2018-01-29T11:23:26.380Z,3.60
2018-01-29T11:25:54.754Z,1.97
2018-01-29T11:28:23.157Z,1.37
2018-01-29T11:30:51.528Z,1.93
2018-01-29T11:33:19.904Z,5.70
2018-01-29T11:35:48.294Z,1.87
2018-01-29T11:38:16.664Z,1.50
2018-01-29T11:40:45.060Z,2.03
2018-01-29T11:43:13.434Z,1.50
2018-01-29T11:45:41.804Z,1.90
2018-01-29T11:48:10.200Z,1.77
2018-01-29T11:50:38.568Z,1.40
2018-01-29T11:53:06.940Z,1.70
2018-01-29T11:55:35.323Z,3.90
2018-01-29T11:58:03.690Z,3.53
2018-01-29T12:00:32.077Z,1.83
2018-01-29T12:03:00.457Z,1.60
2018-01-29T12:05:28.824Z,3.70
2018-01-29T12:07:57.194Z,3.40
2018-01-29T12:10:25.587Z,4.30
2018-01-29T12:12:53.985Z,1.77
2018-01-29T12:15:22.536Z,2.80
2018-01-29T12:17:50.946Z,2.30
2018-01-29T12:20:19.313Z,3.33
2018-01-29T12:22:47.687Z,3.30
2018-01-29T12:25:16.092Z,2.30
2018-01-29T12:27:44.472Z,2.37
2018-01-29T12:30:12.177Z,6.90
2018-01-29T12:32:41.337Z,2.10
2018-01-29T12:35:09.735Z,3.10
2018-01-29T12:37:38.120Z,3.07
2018-01-29T12:40:06.485Z,2.63
2018-01-29T12:42:34.890Z,2.60
2018-01-29T12:45:03.265Z,5.73
2018-01-29T12:47:31.672Z,2.53
2018-01-29T12:50:00.494Z,3.30
2018-01-29T12:52:28.862Z,2.97
2018-01-29T12:54:57.253Z,4.20
2018-01-29T12:57:25.621Z,3.50
2018-01-29T12:59:53.999Z,3.53
2018-01-29T13:02:22.457Z,3.43
2018-01-29T13:04:51.600Z,5.20
2018-01-29T13:07:20.005Z,4.50
2018-01-29T13:09:48.406Z,9.47
2018-01-29T13:12:17.625Z,6.60
2018-01-29T13:14:46.002Z,5.47
2018-01-29T13:17:14.387Z,6.20
2018-01-29T13:19:42.809Z,7.13
2018-01-29T13:22:11.247Z,7.13
2018-01-29T13:24:39.643Z,7.27
2018-01-29T13:27:08.062Z,8.10
2018-01-29T13:29:36.477Z,5.73
2018-01-29T13:32:04.548Z,7.03
2018-01-29T13:34:32.960Z,5.00
2018-01-29T13:37:02.117Z,5.10
2018-01-29T13:39:31.265Z,10.27
2018-01-29T13:41:59.686Z,5.30
2018-01-29T13:44:28.079Z,8.27
2018-01-29T13:46:56.577Z,5.50
2018-01-29T13:49:24.974Z,7.93
2018-01-29T13:51:53.370Z,3.97
2018-01-29T13:54:21.785Z,6.33
2018-01-29T13:56:51.261Z,6.60
2018-01-29T13:59:19.884Z,8.53
2018-01-29T14:01:49.059Z,7.00
2018-01-29T14:04:16.836Z,5.40
2018-01-29T14:06:45.224Z,8.30
2018-01-29T14:09:13.625Z,9.93
2018-01-29T14:11:42.865Z,9.43
2018-01-29T14:14:11.344Z,4.10
2018-01-29T14:16:40.493Z,6.33
2018-01-29T14:19:09.662Z,7.17
2018-01-29T14:21:38.049Z,9.87
2018-01-29T14:24:06.429Z,4.70
2018-01-29T14:26:34.829Z,10.03
2018-01-29T14:29:03.641Z,4.37
2018-01-29T14:31:32.016Z,14.03
2018-01-29T14:34:01.228Z,13.43
2018-01-29T14:36:29.776Z,4.50
2018-01-29T14:38:57.485Z,6.60
2018-01-29T14:41:25.952Z,7.50
2018-01-29T14:43:54.320Z,5.97
2018-01-29T14:46:23.453Z,9.13
2018-01-29T14:48:51.838Z,12.10
2018-01-29T14:51:20.213Z,3.60
2018-01-29T14:53:48.596Z,5.27
2018-01-29T14:56:16.985Z,6.40
2018-01-29T14:58:45.363Z,7.30
2018-01-29T15:01:13.792Z,5.13
2018-01-29T15:03:41.721Z,5.33
2018-01-29T15:06:10.114Z,4.63
2018-01-29T15:08:38.517Z,11.77
2018-01-29T15:11:07.661Z,4.43
2018-01-29T15:13:35.930Z,8.57
2018-01-29T15:16:03.857Z,5.53
2018-01-29T15:18:33.068Z,10.53
2018-01-29T15:21:01.577Z,6.03
2018-01-29T15:23:30.037Z,5.90
2018-01-29T15:25:58.511Z,6.17
2018-01-29T15:28:27.717Z,8.40
2018-01-29T15:30:56.138Z,10.70
2018-01-29T15:33:25.124Z,6.73
2018-01-29T15:35:53.551Z,8.97
2018-01-29T15:38:22.731Z,8.43
2018-01-29T15:40:51.179Z,11.17
2018-01-29T15:43:19.581Z,8.83
2018-01-29T15:45:48.007Z,6.47
2018-01-29T15:48:17.214Z,6.83
2018-01-29T15:50:45.904Z,7.83
2018-01-29T15:53:15.077Z,13.25
2018-01-29T15:55:43.524Z,14.53
2018-01-29T15:58:12.212Z,28.95
2018-01-29T16:00:40.895Z,28.25
2018-01-29T16:03:09.583Z,15.25
2018-01-29T16:05:38.244Z,21.85
2018-01-29T16:08:07.668Z,20.95
2018-01-29T16:10:37.101Z,17.67
2018-01-29T16:13:05.760Z,15.25
2018-01-29T16:15:34.561Z,13.73
2018-01-29T16:18:03.237Z,10.48
2018-01-29T16:20:31.890Z,15.43
2018-01-29T16:23:00.566Z,10.00
2018-01-29T16:25:29.245Z,19.12
2018-01-29T16:27:57.925Z,22.70
2018-01-29T16:30:26.597Z,32.63
2018-01-29T16:32:55.257Z,64.20
2018-01-29T16:35:23.929Z,31.10
2018-01-29T16:37:53.351Z,21.52
2018-01-29T16:40:22.030Z,19.55
2018-01-29T16:42:50.921Z,19.77
2018-01-29T16:45:20.343Z,24.83
2018-01-29T16:47:48.999Z,16.50
2018-01-29T16:50:18.421Z,12.30
2018-01-29T16:52:47.091Z,14.35
2018-01-29T16:55:15.776Z,12.07
2018-01-29T16:57:45.248Z,13.40
2018-01-29T17:00:13.909Z,18.98
2018-01-29T17:02:42.550Z,13.45
2018-01-29T17:05:11.079Z,14.98
2018-01-29T17:07:39.752Z,16.92
2018-01-29T17:10:08.418Z,13.62
2018-01-29T17:15:12.200Z,19.02
2018-01-29T17:17:41.129Z,15.90
2018-01-29T17:20:10.241Z,17.75
2018-01-29T17:22:38.376Z,17.70
2018-01-29T17:25:07.106Z,12.18
2018-01-29T17:27:36.157Z,13.48
2018-01-29T17:30:04.501Z,10.02
2018-01-29T17:32:34.445Z,9.23
2018-01-29T17:35:03.130Z,11.50
2018-01-29T17:37:31.812Z,15.13
2018-01-29T17:40:00.456Z,9.93
2018-01-29T17:42:29.856Z,7.60
2018-01-29T17:44:59.304Z,7.15
2018-01-29T17:47:27.941Z,7.68
2018-01-29T17:49:57.364Z,15.93
2018-01-29T17:52:26.029Z,8.95
2018-01-29T17:54:55.426Z,8.20
2018-01-29T17:57:24.053Z,8.23
2018-01-29T17:59:52.809Z,6.37
2018-01-29T18:02:22.203Z,6.28
2018-01-29T18:04:50.838Z,7.78
2018-01-29T18:07:19.177Z,6.28
2018-01-29T18:09:48.573Z,5.15
2018-01-29T18:12:17.252Z,6.22
2018-01-29T18:14:45.885Z,5.90
2018-01-29T18:17:14.523Z,7.75
2018-01-29T18:19:43.185Z,7.32
2018-01-29T18:22:11.857Z,12.35
2018-01-29T18:24:40.504Z,40.65
2018-01-29T18:27:09.189Z,18.23
2018-01-29T18:29:43.241Z,9.65
2018-01-29T18:32:12.262Z,11.70
2018-01-29T18:34:40.908Z,5.87
2018-01-29T18:37:09.553Z,8.63
2018-01-29T18:39:39.058Z,11.12
2018-01-29T18:42:07.895Z,10.95
2018-01-29T18:44:36.544Z,9.15
2018-01-29T18:47:06.160Z,10.32
2018-01-29T18:49:35.625Z,8.88
2018-01-29T18:52:04.265Z,8.98
2018-01-29T18:54:32.953Z,22.02
2018-01-29T18:57:01.603Z,15.23
2018-01-29T18:59:30.257Z,16.58
2018-01-29T19:01:58.921Z,19.02
2018-01-29T19:04:27.568Z,16.67
2018-01-29T19:06:56.051Z,15.25
2018-01-29T19:09:25.499Z,15.50
2018-01-29T19:11:53.493Z,12.73
2018-01-29T19:14:22.141Z,14.95
2018-01-29T19:16:50.812Z,9.90
2018-01-29T19:19:20.216Z,6.60
2018-01-29T19:21:49.616Z,9.02
2018-01-29T19:24:18.275Z,9.10
2018-01-29T19:26:46.922Z,7.03
2018-01-29T19:29:15.576Z,13.60
2018-01-29T19:31:45.013Z,12.37
2018-01-29T19:34:13.646Z,9.90
2018-01-29T19:36:42.302Z,10.40
2018-01-29T19:39:10.977Z,9.75
2018-01-29T19:41:39.617Z,8.40
2018-01-29T19:44:08.270Z,7.40
2018-01-29T19:46:37.126Z,5.45
2018-01-29T19:49:05.940Z,7.70
2018-01-29T19:51:34.570Z,8.02
2018-01-29T19:54:03.292Z,8.70
2018-01-29T19:56:31.636Z,8.85
2018-01-29T19:59:01.038Z,7.68
2018-01-29T20:01:30.476Z,9.27
2018-01-29T20:03:59.108Z,8.50
2018-01-29T20:06:27.762Z,6.50
2018-01-29T20:08:56.549Z,9.48
2018-01-29T20:11:25.184Z,5.90
2018-01-29T20:13:53.845Z,7.93
2018-01-29T20:16:22.506Z,6.78
2018-01-29T20:18:51.135Z,8.95
2018-01-29T20:21:19.768Z,5.35
2018-01-29T20:23:48.421Z,6.57
2018-01-29T20:26:17.052Z,3.87
2018-01-29T20:28:45.682Z,5.60
2018-01-29T20:31:14.526Z,5.68
2018-01-29T20:33:43.189Z,5.15
2018-01-29T20:36:12.663Z,3.45
2018-01-29T20:38:41.533Z,7.47
2018-01-29T20:41:10.171Z,4.37
2018-01-29T20:43:38.897Z,11.40
2018-01-29T20:46:07.569Z,6.18
2018-01-29T20:48:36.212Z,17.55
2018-01-29T20:51:04.937Z,8.18
2018-01-29T20:53:34.045Z,4.00
2018-01-29T20:56:03.707Z,5.72
2018-01-29T20:58:32.343Z,3.00
2018-01-29T21:01:01.025Z,14.93
2018-01-29T21:03:29.653Z,5.78
2018-01-29T21:05:58.317Z,4.60
2018-01-29T21:08:26.969Z,6.70
2018-01-29T21:10:55.601Z,8.40
2018-01-29T21:13:24.229Z,5.65
2018-01-29T21:15:53.656Z,4.15
2018-01-29T21:18:22.285Z,6.78
2018-01-29T21:20:50.932Z,6.87
2018-01-29T21:23:19.592Z,3.87
2018-01-29T21:25:48.985Z,4.97
2018-01-29T21:28:18.388Z,8.80
2018-01-29T21:30:47.828Z,5.70
2018-01-29T21:33:16.462Z,5.35
2018-01-29T21:35:44.778Z,4.45
2018-01-29T21:38:13.421Z,4.05
2018-01-29T21:40:45.681Z,6.20
2018-01-29T21:43:15.533Z,6.10
2018-01-29T21:45:44.214Z,4.22
2018-01-29T21:48:13.616Z,5.18
2018-01-29T21:50:43.045Z,8.25
2018-01-29T21:53:11.669Z,3.53
2018-01-29T21:55:40.315Z,4.68
2018-01-29T21:58:09.976Z,5.00
2018-01-29T22:00:38.620Z,3.65
2018-01-29T22:03:07.284Z,3.67
2018-01-29T22:05:36.745Z,6.05
2018-01-29T22:08:06.223Z,7.57
2018-01-29T22:10:35.012Z,3.35
2018-01-29T22:13:03.673Z,6.03
2018-01-29T22:15:32.324Z,6.47
2018-01-29T22:18:00.965Z,6.70
2018-01-29T22:20:29.280Z,4.72
2018-01-29T22:22:59.934Z,4.20
2018-01-29T22:25:29.261Z,3.65
2018-01-29T22:27:58.684Z,6.50
2018-01-29T22:30:27.332Z,4.55
2018-01-29T22:32:55.985Z,2.45
2018-01-29T22:35:24.816Z,3.33
2018-01-29T22:37:54.317Z,5.87
2018-01-29T22:40:23.801Z,5.62
2018-01-29T22:42:55.666Z,7.62
2018-01-29T22:45:24.357Z,5.40
2018-01-29T22:47:56.193Z,6.87
2018-01-29T22:50:24.188Z,5.15
2018-01-29T22:52:52.821Z,5.18
2018-01-29T22:55:21.453Z,4.80
2018-01-29T22:57:50.116Z,3.35
2018-01-29T23:00:18.952Z,5.97
2018-01-29T23:02:47.596Z,6.32
2018-01-29T23:05:16.268Z,4.25
2018-01-29T23:07:44.908Z,4.97
2018-01-29T23:10:13.537Z,3.92
2018-01-29T23:12:42.181Z,4.05
2018-01-29T23:15:10.849Z,4.53
2018-01-29T23:17:39.494Z,3.92
2018-01-29T23:20:08.138Z,2.97
2018-01-29T23:22:36.768Z,3.05
2018-01-29T23:25:05.393Z,3.85
2018-01-29T23:27:34.046Z,3.72
2018-01-29T23:30:02.689Z,1.92
2018-01-29T23:32:32.101Z,3.15
2018-01-29T23:35:01.516Z,3.33
2018-01-29T23:37:29.489Z,2.00
2018-01-29T23:39:58.121Z,4.47
2018-01-29T23:42:26.777Z,1.30
2018-01-29T23:44:55.396Z,2.97
2018-01-29T23:47:24.040Z,1.27
2018-01-29T23:49:52.700Z,2.25
2018-01-29T23:52:21.345Z,1.10
2018-01-29T23:54:49.992Z,1.35
2018-01-29T23:57:18.668Z,1.55
2018-01-29T23:59:48.068Z,1.40
